Weather at Capitol Medical Center Heliport

Public forecast

Using degrees Fahrenheit for public forecast. Weather courtesy of forecast.io.

Closest aviation weather report (METAR) to Capitol Medical Center Heliport

Closest report is Olympia Regional Airport, 4.9 nm (9.0 km) SSE.

2024/07/17 17:54 (retrieved 45 minutes ago)

KOLM 171754Z 00000KT 10SM CLR 22/14 A2999 RMK AO2 SLP153 T02220144 10222 20156 50003

Closest aviation forecast (TAF) to Capitol Medical Center Heliport

Closest forecast is Olympia Regional Airport, 4.9 nm (9.0 km) SSE.

2024/07/17 18:42 (retrieved 0 seconds ago)

TAF KOLM 171740Z 1718/1818 24006KT P6SM SCT150 FM172000 27008KT P6SM SCT150 FM180900 21006KT P6SM OVC012 FM181700 22005KT P6SM SCT015